sensor_id;sensor_type;location;lat;lon;timestamp;temperature;humidity
29007;DHT22;16104;48.642;9.008;2023-06-10T01:03:03;20.90;43.30
29007;DHT22;16104;48.642;9.008;2023-06-10T01:08:18;20.80;43.40
29007;DHT22;16104;48.642;9.008;2023-06-10T01:13:16;20.70;43.70
29007;DHT22;16104;48.642;9.008;2023-06-10T02:04:01;20.00;45.20
29007;DHT22;16104;48.642;9.008;2023-06-10T02:08:57;19.90;45.20
29007;DHT22;16104;48.642;9.008;2023-06-10T02:13:55;19.80;45.60
29007;DHT22;16104;48.642;9.008;2023-06-10T03:04:39;18.70;48.80
29007;DHT22;16104;48.642;9.008;2023-06-10T03:09:34;18.70;48.80
29007;DHT22;16104;48.642;9.008;2023-06-10T03:14:30;18.60;48.90
29007;DHT22;16104;48.642;9.008;2023-06-10T03:19:25;18.60;49.00
29007;DHT22;16104;48.642;9.008;2023-06-10T03:24:21;18.50;49.10
29007;DHT22;16104;48.642;9.008;2023-06-10T03:29:17;18.50;49.30
29007;DHT22;16104;48.642;9.008;2023-06-10T03:34:12;18.40;49.50
29007;DHT22;16104;48.642;9.008;2023-06-10T03:39:08;18.40;50.00
29007;DHT22;16104;48.642;9.008;2023-06-10T03:44:04;18.40;50.20
29007;DHT22;16104;48.642;9.008;2023-06-10T03:48:59;18.30;49.90
29007;DHT22;16104;48.642;9.008;2023-06-10T03:53:55;18.30;50.00
29007;DHT22;16104;48.642;9.008;2023-06-10T03:58:51;18.20;50.20
29007;DHT22;16104;48.642;9.008;2023-06-10T04:03:47;18.20;50.10
29007;DHT22;16104;48.642;9.008;2023-06-10T04:08:44;18.10;50.30
29007;DHT22;16104;48.642;9.008;2023-06-10T04:13:40;18.10;50.50
29007;DHT22;16104;48.642;9.008;2023-06-10T04:18:35;18.10;51.10
29007;DHT22;16104;48.642;9.008;2023-06-10T04:23:31;18.00;51.10
29007;DHT22;16104;48.642;9.008;2023-06-10T04:28:26;18.00;51.10
29007;DHT22;16104;48.642;9.008;2023-06-10T04:33:22;18.00;51.20
29007;DHT22;16104;48.642;9.008;2023-06-10T04:38:17;18.10;51.40
29007;DHT22;16104;48.642;9.008;2023-06-10T04:43:13;18.10;51.40
29007;DHT22;16104;48.642;9.008;2023-06-10T04:48:09;18.10;51.20
29007;DHT22;16104;48.642;9.008;2023-06-10T04:53:05;18.10;51.50
29007;DHT22;16104;48.642;9.008;2023-06-10T04:58:04;18.20;52.00
29007;DHT22;16104;48.642;9.008;2023-06-10T05:02:59;18.20;52.30
29007;DHT22;16104;48.642;9.008;2023-06-10T05:07:55;18.40;52.40
29007;DHT22;16104;48.642;9.008;2023-06-10T05:12:51;18.50;53.30
29007;DHT22;16104;48.642;9.008;2023-06-10T05:17:46;18.60;53.20
29007;DHT22;16104;48.642;9.008;2023-06-10T05:22:42;18.80;53.30
29007;DHT22;16104;48.642;9.008;2023-06-10T05:27:37;18.90;53.40
29007;DHT22;16104;48.642;9.008;2023-06-10T05:32:34;19.20;53.50
29007;DHT22;16104;48.642;9.008;2023-06-10T05:37:30;19.40;53.20
29007;DHT22;16104;48.642;9.008;2023-06-10T05:42:25;19.60;52.90
29007;DHT22;16104;48.642;9.008;2023-06-10T05:47:21;19.90;52.80
29007;DHT22;16104;48.642;9.008;2023-06-10T05:52:16;20.10;52.50
29007;DHT22;16104;48.642;9.008;2023-06-10T05:57:12;20.30;52.20
29007;DHT22;16104;48.642;9.008;2023-06-10T06:02:07;20.60;52.00
29007;DHT22;16104;48.642;9.008;2023-06-10T06:07:03;20.80;51.90
29007;DHT22;16104;48.642;9.008;2023-06-10T06:12:00;21.00;51.70
29007;DHT22;16104;48.642;9.008;2023-06-10T06:16:56;21.30;51.30
29007;DHT22;16104;48.642;9.008;2023-06-10T06:21:51;21.50;51.00
29007;DHT22;16104;48.642;9.008;2023-06-10T06:26:46;21.70;50.80
29007;DHT22;16104;48.642;9.008;2023-06-10T06:31:42;21.90;50.30
29007;DHT22;16104;48.642;9.008;2023-06-10T06:36:37;22.10;50.20
29007;DHT22;16104;48.642;9.008;2023-06-10T06:41:33;22.30;50.00
29007;DHT22;16104;48.642;9.008;2023-06-10T06:46:28;22.50;50.00
29007;DHT22;16104;48.642;9.008;2023-06-10T06:51:24;22.70;49.60
29007;DHT22;16104;48.642;9.008;2023-06-10T06:56:19;22.90;49.40
29007;DHT22;16104;48.642;9.008;2023-06-10T07:01:16;23.00;49.20
29007;DHT22;16104;48.642;9.008;2023-06-10T07:06:13;23.20;49.00
29007;DHT22;16104;48.642;9.008;2023-06-10T07:11:08;23.40;49.10
29007;DHT22;16104;48.642;9.008;2023-06-10T07:16:04;23.70;48.90
29007;DHT22;16104;48.642;9.008;2023-06-10T07:20:59;23.90;48.40
29007;DHT22;16104;48.642;9.008;2023-06-10T07:25:55;24.10;48.20
29007;DHT22;16104;48.642;9.008;2023-06-10T07:30:50;24.30;48.00
29007;DHT22;16104;48.642;9.008;2023-06-10T07:35:46;24.50;48.10
29007;DHT22;16104;48.642;9.008;2023-06-10T07:40:42;24.70;47.70
29007;DHT22;16104;48.642;9.008;2023-06-10T07:45:40;24.80;46.90
29007;DHT22;16104;48.642;9.008;2023-06-10T07:50:36;25.00;46.70
29007;DHT22;16104;48.642;9.008;2023-06-10T07:55:32;25.10;46.50
29007;DHT22;16104;48.642;9.008;2023-06-10T08:00:27;25.30;46.40
29007;DHT22;16104;48.642;9.008;2023-06-10T08:05:23;25.50;46.40
29007;DHT22;16104;48.642;9.008;2023-06-10T08:10:18;25.70;45.70
29007;DHT22;16104;48.642;9.008;2023-06-10T08:15:14;25.80;45.00
29007;DHT22;16104;48.642;9.008;2023-06-10T08:20:10;26.00;44.50
29007;DHT22;16104;48.642;9.008;2023-06-10T08:25:05;26.10;44.30
29007;DHT22;16104;48.642;9.008;2023-06-10T08:30:01;26.30;44.40
29007;DHT22;16104;48.642;9.008;2023-06-10T08:34:57;26.40;43.80
29007;DHT22;16104;48.642;9.008;2023-06-10T08:39:52;26.60;43.50
29007;DHT22;16104;48.642;9.008;2023-06-10T08:44:53;26.70;43.50
29007;DHT22;16104;48.642;9.008;2023-06-10T08:49:51;26.80;43.30
29007;DHT22;16104;48.642;9.008;2023-06-10T08:55:03;27.00;43.20
29007;DHT22;16104;48.642;9.008;2023-06-10T08:59:59;27.20;42.70
29007;DHT22;16104;48.642;9.008;2023-06-10T09:04:56;27.40;42.40
29007;DHT22;16104;48.642;9.008;2023-06-10T09:09:53;27.50;42.10
29007;DHT22;16104;48.642;9.008;2023-06-10T09:19:48;27.80;42.20
29007;DHT22;16104;48.642;9.008;2023-06-10T09:24:44;28.00;41.30
29007;DHT22;16104;48.642;9.008;2023-06-10T09:29:52;28.20;41.30
29007;DHT22;16104;48.642;9.008;2023-06-10T09:34:48;28.40;41.30
29007;DHT22;16104;48.642;9.008;2023-06-10T09:39:45;28.60;40.60
29007;DHT22;16104;48.642;9.008;2023-06-10T09:44:56;28.80;40.50
29007;DHT22;16104;48.642;9.008;2023-06-10T09:49:51;29.00;39.20
29007;DHT22;16104;48.642;9.008;2023-06-10T09:54:58;29.20;38.90
29007;DHT22;16104;48.642;9.008;2023-06-10T09:59:54;29.40;38.80
29007;DHT22;16104;48.642;9.008;2023-06-10T10:04:50;29.60;38.30
29007;DHT22;16104;48.642;9.008;2023-06-10T10:09:46;29.70;37.50
29007;DHT22;16104;48.642;9.008;2023-06-10T10:14:46;29.90;38.40
29007;DHT22;16104;48.642;9.008;2023-06-10T10:19:53;30.10;37.80
29007;DHT22;16104;48.642;9.008;2023-06-10T10:24:55;30.30;36.70
29007;DHT22;16104;48.642;9.008;2023-06-10T10:29:52;30.50;37.30
29007;DHT22;16104;48.642;9.008;2023-06-10T10:39:58;31.00;36.50
29007;DHT22;16104;48.642;9.008;2023-06-10T10:44:54;31.10;36.10
29007;DHT22;16104;48.642;9.008;2023-06-10T10:49:51;31.20;36.80
29007;DHT22;16104;48.642;9.008;2023-06-10T10:54:53;31.40;36.00
29007;DHT22;16104;48.642;9.008;2023-06-10T11:04:46;31.80;35.40
29007;DHT22;16104;48.642;9.008;2023-06-10T11:10:17;32.00;33.90
29007;DHT22;16104;48.642;9.008;2023-06-10T11:15:13;32.10;34.10
29007;DHT22;16104;48.642;9.008;2023-06-10T11:20:09;32.30;33.70
29007;DHT22;16104;48.642;9.008;2023-06-10T11:25:13;32.40;33.70
29007;DHT22;16104;48.642;9.008;2023-06-10T11:30:19;32.50;32.70
29007;DHT22;16104;48.642;9.008;2023-06-10T11:35:15;32.40;32.10
29007;DHT22;16104;48.642;9.008;2023-06-10T11:40:12;32.40;32.80
29007;DHT22;16104;48.642;9.008;2023-06-10T11:45:07;32.50;32.40
29007;DHT22;16104;48.642;9.008;2023-06-10T11:50:04;32.70;33.40
29007;DHT22;16104;48.642;9.008;2023-06-10T11:55:00;33.00;33.00
29007;DHT22;16104;48.642;9.008;2023-06-10T11:59:55;33.20;31.80
29007;DHT22;16104;48.642;9.008;2023-06-10T12:04:51;33.40;31.10
29007;DHT22;16104;48.642;9.008;2023-06-10T12:09:46;33.50;31.70
29007;DHT22;16104;48.642;9.008;2023-06-10T12:14:59;33.70;30.50
29007;DHT22;16104;48.642;9.008;2023-06-10T12:19:54;34.00;30.10
29007;DHT22;16104;48.642;9.008;2023-06-10T12:25:03;34.20;30.30
29007;DHT22;16104;48.642;9.008;2023-06-10T12:29:59;34.50;29.40
29007;DHT22;16104;48.642;9.008;2023-06-10T12:35:05;34.80;29.10
29007;DHT22;16104;48.642;9.008;2023-06-10T12:40:02;35.00;28.10
29007;DHT22;16104;48.642;9.008;2023-06-10T12:44:58;35.10;29.00
29007;DHT22;16104;48.642;9.008;2023-06-10T12:49:56;35.10;28.20
29007;DHT22;16104;48.642;9.008;2023-06-10T12:54:51;35.10;28.60
29007;DHT22;16104;48.642;9.008;2023-06-10T12:59:47;35.20;29.30
29007;DHT22;16104;48.642;9.008;2023-06-10T13:04:47;35.40;29.20
29007;DHT22;16104;48.642;9.008;2023-06-10T13:09:43;35.70;29.20
29007;DHT22;16104;48.642;9.008;2023-06-10T13:14:39;36.00;28.30
29007;DHT22;16104;48.642;9.008;2023-06-10T13:19:34;36.20;28.00
29007;DHT22;16104;48.642;9.008;2023-06-10T13:24:30;36.30;27.40
29007;DHT22;16104;48.642;9.008;2023-06-10T13:29:25;36.30;27.40
29007;DHT22;16104;48.642;9.008;2023-06-10T13:34:21;36.40;27.50
29007;DHT22;16104;48.642;9.008;2023-06-10T13:39:16;36.60;27.30
29007;DHT22;16104;48.642;9.008;2023-06-10T13:44:12;36.70;27.10
29007;DHT22;16104;48.642;9.008;2023-06-10T13:49:08;36.50;26.50
29007;DHT22;16104;48.642;9.008;2023-06-10T13:54:04;36.20;27.20
29007;DHT22;16104;48.642;9.008;2023-06-10T13:58:59;36.10;27.10
29007;DHT22;16104;48.642;9.008;2023-06-10T14:03:55;36.00;27.20
29007;DHT22;16104;48.642;9.008;2023-06-10T14:08:50;36.10;27.60
29007;DHT22;16104;48.642;9.008;2023-06-10T14:13:46;36.30;27.40
29007;DHT22;16104;48.642;9.008;2023-06-10T14:18:42;36.40;26.80
29007;DHT22;16104;48.642;9.008;2023-06-10T14:23:37;36.30;26.40
29007;DHT22;16104;48.642;9.008;2023-06-10T14:28:33;36.10;26.30
29007;DHT22;16104;48.642;9.008;2023-06-10T14:33:29;35.70;26.60
29007;DHT22;16104;48.642;9.008;2023-06-10T14:38:26;35.20;26.50
29007;DHT22;16104;48.642;9.008;2023-06-10T14:43:21;34.90;27.00
29007;DHT22;16104;48.642;9.008;2023-06-10T14:48:17;34.60;27.60
29007;DHT22;16104;48.642;9.008;2023-06-10T14:53:12;34.60;27.80
29007;DHT22;16104;48.642;9.008;2023-06-10T14:58:08;34.80;27.90
29007;DHT22;16104;48.642;9.008;2023-06-10T15:03:03;34.80;27.40
29007;DHT22;16104;48.642;9.008;2023-06-10T15:07:59;34.80;27.20
29007;DHT22;16104;48.642;9.008;2023-06-10T15:12:54;34.70;27.40
29007;DHT22;16104;48.642;9.008;2023-06-10T15:17:53;34.60;27.30
29007;DHT22;16104;48.642;9.008;2023-06-10T15:22:49;34.50;27.90
29007;DHT22;16104;48.642;9.008;2023-06-10T15:27:44;34.60;28.10
29007;DHT22;16104;48.642;9.008;2023-06-10T15:32:40;34.60;27.80
29007;DHT22;16104;48.642;9.008;2023-06-10T15:37:35;34.60;27.50
29007;DHT22;16104;48.642;9.008;2023-06-10T15:42:31;34.50;27.60
29007;DHT22;16104;48.642;9.008;2023-06-10T15:47:27;34.20;27.60
29007;DHT22;16104;48.642;9.008;2023-06-10T15:52:22;34.10;27.80
29007;DHT22;16104;48.642;9.008;2023-06-10T15:57:18;33.80;27.90
29007;DHT22;16104;48.642;9.008;2023-06-10T16:02:14;33.60;28.20
29007;DHT22;16104;48.642;9.008;2023-06-10T16:07:10;33.40;28.30
29007;DHT22;16104;48.642;9.008;2023-06-10T16:12:06;33.30;28.60
29007;DHT22;16104;48.642;9.008;2023-06-10T16:17:01;33.30;28.40
29007;DHT22;16104;48.642;9.008;2023-06-10T16:21:57;33.20;28.10
29007;DHT22;16104;48.642;9.008;2023-06-10T16:26:53;33.20;28.40
29007;DHT22;16104;48.642;9.008;2023-06-10T16:31:48;33.10;28.40
29007;DHT22;16104;48.642;9.008;2023-06-10T16:36:44;33.10;28.90
29007;DHT22;16104;48.642;9.008;2023-06-10T16:41:40;33.10;29.00
29007;DHT22;16104;48.642;9.008;2023-06-10T16:46:35;33.10;28.70
29007;DHT22;16104;48.642;9.008;2023-06-10T16:51:31;33.00;28.70
29007;DHT22;16104;48.642;9.008;2023-06-10T16:56:26;32.90;29.10
29007;DHT22;16104;48.642;9.008;2023-06-10T17:01:22;32.80;28.70
29007;DHT22;16104;48.642;9.008;2023-06-10T17:06:19;32.80;28.70
29007;DHT22;16104;48.642;9.008;2023-06-10T17:11:14;32.80;28.60
29007;DHT22;16104;48.642;9.008;2023-06-10T17:16:10;32.80;28.50
29007;DHT22;16104;48.642;9.008;2023-06-10T17:21:05;32.90;28.80
29007;DHT22;16104;48.642;9.008;2023-06-10T17:26:01;33.00;28.80
29007;DHT22;16104;48.642;9.008;2023-06-10T17:30:56;33.10;28.70
29007;DHT22;16104;48.642;9.008;2023-06-10T17:35:52;33.20;28.60
29007;DHT22;16104;48.642;9.008;2023-06-10T17:40:47;33.20;28.40
29007;DHT22;16104;48.642;9.008;2023-06-10T17:45:43;33.20;28.30
29007;DHT22;16104;48.642;9.008;2023-06-10T17:50:38;33.20;28.20
29007;DHT22;16104;48.642;9.008;2023-06-10T17:55:34;33.10;28.20
29007;DHT22;16104;48.642;9.008;2023-06-10T18:00:30;32.80;28.10
29007;DHT22;16104;48.642;9.008;2023-06-10T18:05:26;32.50;28.20
29007;DHT22;16104;48.642;9.008;2023-06-10T18:10:21;32.30;28.70
29007;DHT22;16104;48.642;9.008;2023-06-10T18:15:17;32.00;28.80
29007;DHT22;16104;48.642;9.008;2023-06-10T18:20:12;31.80;29.10
29007;DHT22;16104;48.642;9.008;2023-06-10T18:25:08;31.60;29.30
29007;DHT22;16104;48.642;9.008;2023-06-10T18:30:04;31.40;29.50
29007;DHT22;16104;48.642;9.008;2023-06-10T18:35:00;31.20;29.70
29007;DHT22;16104;48.642;9.008;2023-06-10T18:39:55;30.90;29.90
29007;DHT22;16104;48.642;9.008;2023-06-10T18:44:51;30.60;30.10
29007;DHT22;16104;48.642;9.008;2023-06-10T18:49:46;30.40;30.60
29007;DHT22;16104;48.642;9.008;2023-06-10T18:54:42;30.20;30.90
29007;DHT22;16104;48.642;9.008;2023-06-10T18:59:37;29.90;31.30
29007;DHT22;16104;48.642;9.008;2023-06-10T19:04:33;29.70;31.60
29007;DHT22;16104;48.642;9.008;2023-06-10T19:09:28;29.50;32.00
29007;DHT22;16104;48.642;9.008;2023-06-10T19:14:24;29.30;32.10
29007;DHT22;16104;48.642;9.008;2023-06-10T19:19:20;29.10;32.40
29007;DHT22;16104;48.642;9.008;2023-06-10T19:24:15;28.90;32.60
29007;DHT22;16104;48.642;9.008;2023-06-10T19:29:11;28.70;32.80
29007;DHT22;16104;48.642;9.008;2023-06-10T19:34:06;28.50;33.20
29007;DHT22;16104;48.642;9.008;2023-06-10T19:39:02;28.20;33.30
29007;DHT22;16104;48.642;9.008;2023-06-10T19:43:57;28.10;33.60
29007;DHT22;16104;48.642;9.008;2023-06-10T19:48:53;27.90;34.10
29007;DHT22;16104;48.642;9.008;2023-06-10T19:53:48;27.70;34.90
29007;DHT22;16104;48.642;9.008;2023-06-10T19:58:49;27.60;34.90
29007;DHT22;16104;48.642;9.008;2023-06-10T20:03:45;27.40;35.30
29007;DHT22;16104;48.642;9.008;2023-06-10T20:08:40;27.20;35.30
29007;DHT22;16104;48.642;9.008;2023-06-10T20:13:36;27.10;35.60
29007;DHT22;16104;48.642;9.008;2023-06-10T20:18:31;27.00;35.90
29007;DHT22;16104;48.642;9.008;2023-06-10T20:23:27;26.80;36.10
29007;DHT22;16104;48.642;9.008;2023-06-10T20:28:23;26.70;36.50
29007;DHT22;16104;48.642;9.008;2023-06-10T20:33:19;26.50;36.60
29007;DHT22;16104;48.642;9.008;2023-06-10T20:38:15;26.40;37.10
29007;DHT22;16104;48.642;9.008;2023-06-10T20:43:10;26.30;37.30
29007;DHT22;16104;48.642;9.008;2023-06-10T20:48:06;26.10;37.60
29007;DHT22;16104;48.642;9.008;2023-06-10T20:53:02;26.00;38.10
29007;DHT22;16104;48.642;9.008;2023-06-10T20:57:57;25.80;38.50
29007;DHT22;16104;48.642;9.008;2023-06-10T21:02:53;25.70;38.90
29007;DHT22;16104;48.642;9.008;2023-06-10T21:07:49;25.60;40.00
29007;DHT22;16104;48.642;9.008;2023-06-10T21:12:45;25.40;39.50
29007;DHT22;16104;48.642;9.008;2023-06-10T21:17:41;25.30;39.50
29007;DHT22;16104;48.642;9.008;2023-06-10T21:22:36;25.20;40.20
29007;DHT22;16104;48.642;9.008;2023-06-10T21:27:32;25.10;40.10
29007;DHT22;16104;48.642;9.008;2023-06-10T21:32:27;25.00;40.40
29007;DHT22;16104;48.642;9.008;2023-06-10T21:37:23;24.90;40.80
29007;DHT22;16104;48.642;9.008;2023-06-10T21:42:18;24.80;41.20
29007;DHT22;16104;48.642;9.008;2023-06-10T21:47:14;24.70;41.20
29007;DHT22;16104;48.642;9.008;2023-06-10T21:52:09;24.60;41.70
29007;DHT22;16104;48.642;9.008;2023-06-10T21:57:05;24.50;41.80
29007;DHT22;16104;48.642;9.008;2023-06-10T22:02:00;24.40;42.30
29007;DHT22;16104;48.642;9.008;2023-06-10T22:06:56;24.30;42.50
29007;DHT22;16104;48.642;9.008;2023-06-10T22:11:52;24.10;42.90
29007;DHT22;16104;48.642;9.008;2023-06-10T22:16:47;24.00;43.10
29007;DHT22;16104;48.642;9.008;2023-06-10T22:21:44;23.90;43.40
29007;DHT22;16104;48.642;9.008;2023-06-10T22:26:40;23.80;43.80
29007;DHT22;16104;48.642;9.008;2023-06-10T22:31:36;23.70;43.90
29007;DHT22;16104;48.642;9.008;2023-06-10T22:36:31;23.70;44.20
29007;DHT22;16104;48.642;9.008;2023-06-10T22:41:27;23.60;44.60
29007;DHT22;16104;48.642;9.008;2023-06-10T22:46:23;23.50;44.60
29007;DHT22;16104;48.642;9.008;2023-06-10T22:51:18;23.40;45.00
29007;DHT22;16104;48.642;9.008;2023-06-10T22:56:14;23.30;45.20
29007;DHT22;16104;48.642;9.008;2023-06-10T23:01:10;23.20;45.30
29007;DHT22;16104;48.642;9.008;2023-06-10T23:06:05;23.10;45.60
29007;DHT22;16104;48.642;9.008;2023-06-10T23:11:01;23.10;45.60
29007;DHT22;16104;48.642;9.008;2023-06-10T23:15:56;23.00;46.20
29007;DHT22;16104;48.642;9.008;2023-06-10T23:20:52;22.90;46.30
29007;DHT22;16104;48.642;9.008;2023-06-10T23:25:47;22.80;46.40
29007;DHT22;16104;48.642;9.008;2023-06-10T23:30:43;22.80;46.70
29007;DHT22;16104;48.642;9.008;2023-06-10T23:35:38;22.70;47.00
29007;DHT22;16104;48.642;9.008;2023-06-10T23:40:34;22.60;47.40
29007;DHT22;16104;48.642;9.008;2023-06-10T23:45:29;22.60;47.60
29007;DHT22;16104;48.642;9.008;2023-06-10T23:50:25;22.50;47.80
29007;DHT22;16104;48.642;9.008;2023-06-10T23:55:20;22.40;48.00
